Terminal Aerodrome Forecast
Issued by NWS Buffalo, NY

Home | Current Version | Previous Version | Text Only | Print | Product List | Glossary On
Versions: 1 2 3 4 5 6 7 8 9 10 11 12 13 14 15 16 17 18 19 20 21 22 23 24 25
000
FTUS41 KBUF 250241 AAA
TAFART
TAF AMD
KART 250241Z 2503/2524 VRB03KT P6SM SKC
     FM250800 00000KT 3SM BR SKC
     FM251200 00000KT P6SM SKC
     FM251600 25004KT P6SM SKC
     FM252300 17004KT P6SM FEW250=

USA.gov is the U.S. government's official web portal to all federal, state and local government web resources and services.